tititudorancea.com
Station Historical Data
 
Daily Summary for September 25, 2017 Units:  Metric    English   Both
« Previous Day
Next Day »
Daily Weekly Monthly Yearly Custom
  Current: High: Low: Average:
Temperature: 14.8 °C 15.4 °C 8.5 °C 10.9 °C
Dew Point: 9.2 °C 10.1 °C 7.9 °C 9 °C
Humidity: 69 % 99 % 61 % 89 %
Wind Speed: 0 km/h 0 km/h 0 km/h 0 km/h
Wind Gust: 0 km/h 1.1 km/h - -
Wind:Calm - - North
Pressure: 1002.6 hPa 1003.9 hPa 996.2 hPa -
Precipitation: 1.27 mm      
Historical Graphs
 
 
Ararat weather Find more about Weather in Ararat, AU


 



 


Tabular Data for September 25, 2017
Time Temperature Dew Point Pressure Wind Wind Speed Wind Gust Humidity Rainfall Rate (Hourly)
00:01 10.8 °C 9.2 °C 996.2 hPa Calm     90 % 0 mm
00:06 10.8 °C 9.1 °C 996.2 hPa Calm   1.1 km/h 89 % 0 mm
00:11 10.7 °C 9.1 °C 996.5 hPa Calm   1.1 km/h 90 % 0 mm
00:16 10.7 °C 9.1 °C 996.2 hPa Calm     90 % 0 mm
00:17 10.7 °C 9.1 °C 996.5 hPa Calm     90 % 0 mm
00:22 10.7 °C 9.1 °C 996.5 hPa Calm     90 % 0 mm
00:27 10.6 °C 9.2 °C 996.5 hPa Calm     91 % 0 mm
00:32 10.6 °C 9.2 °C 996.2 hPa Calm     91 % 0 mm
00:37 10.5 °C 9.1 °C 996.2 hPa Calm     91 % 0 mm
00:42 10.5 °C 9.2 °C 996.5 hPa Calm   1.1 km/h 92 % 0 mm
00:47 10.5 °C 9.2 °C 996.5 hPa Calm   1.1 km/h 92 % 0 mm
00:52 10.5 °C 9.1 °C 996.5 hPa Calm     91 % 0 mm
00:57 10.5 °C 9.1 °C 996.5 hPa Calm     91 % 0 mm
01:02 10.5 °C 9.2 °C 996.5 hPa Calm     92 % 0 mm
01:07 10.4 °C 9.2 °C 996.8 hPa Calm     92 % 0 mm
01:12 10.4 °C 9.2 °C 996.8 hPa Calm     92 % 0 mm
01:17 10.4 °C 9.2 °C 996.8 hPa Calm     92 % 0 mm
01:22 10.4 °C 9.3 °C 996.8 hPa Calm     93 % 0 mm
01:27 10.3 °C 9.4 °C 996.8 hPa Calm     94 % 0 mm
01:32 10.2 °C 9.3 °C 997.2 hPa Calm     94 % 0 mm
01:37 10.2 °C 9.4 °C 997.2 hPa Calm     95 % 0 mm
01:42 10.1 °C 9.3 °C 997.2 hPa Calm     95 % 0 mm
01:47 10.1 °C 9.5 °C 997.2 hPa Calm     96 % 0 mm
01:52 10.1 °C 9.5 °C 997.2 hPa Calm     96 % 0 mm
01:57 10.1 °C 9.7 °C 997.5 hPa Calm     97 % 0.25 mm
02:02 10.1 °C 9.7 °C 997.9 hPa Calm     97 % 0.25 mm
02:07 10 °C 9.7 °C 997.5 hPa Calm     98 % 0.76 mm
02:12 10 °C 9.7 °C 997.5 hPa Calm     98 % 1.02 mm
02:17 10 °C 9.7 °C 997.5 hPa Calm     98 % 1.02 mm
02:22 9.9 °C 9.8 °C 997.5 hPa Calm     99 % 1.27 mm
02:27 9.9 °C 9.8 °C 997.5 hPa Calm     99 % 1.27 mm
02:32 9.9 °C 9.8 °C 997.9 hPa Calm     99 % 1.27 mm
02:37 9.9 °C 9.8 °C 997.5 hPa Calm     99 % 1.27 mm
02:42 9.8 °C 9.7 °C 997.5 hPa Calm     99 % 1.27 mm
02:47 9.7 °C 9.6 °C 997.5 hPa Calm     99 % 1.27 mm
02:53 9.7 °C 9.6 °C 997.5 hPa Calm     99 % 1.27 mm
02:58 9.7 °C 9.6 °C 997.5 hPa Calm     99 % 1.02 mm
03:03 9.7 °C 9.6 °C 997.5 hPa Calm     99 % 1.02 mm
03:08 9.7 °C 9.6 °C 997.5 hPa Calm     99 % 0.25 mm
03:12 9.7 °C 9.6 °C 997.9 hPa Calm     99 % 0.25 mm
03:18 9.7 °C 9.6 °C 997.5 hPa Calm     99 % 0.25 mm
03:23 9.7 °C 9.6 °C 997.9 hPa Calm     99 % 0 mm
03:28 9.7 °C 9.6 °C 997.9 hPa Calm     99 % 0 mm
03:33 9.6 °C 9.4 °C 997.9 hPa Calm     99 % 0 mm
03:38 9.6 °C 9.4 °C 997.9 hPa Calm     99 % 0 mm
03:43 9.6 °C 9.4 °C 997.9 hPa Calm     99 % 0 mm
03:48 9.6 °C 9.4 °C 997.9 hPa Calm     99 % 0 mm
03:53 9.6 °C 9.4 °C 997.9 hPa Calm     99 % 0 mm
03:58 9.6 °C 9.4 °C 998.2 hPa Calm     99 % 0 mm
04:03 9.6 °C 9.4 °C 998.5 hPa Calm     99 % 0 mm
04:08 9.6 °C 9.4 °C 998.5 hPa Calm     99 % 0 mm
04:13 9.5 °C 9.3 °C 998.2 hPa Calm     99 % 0 mm
04:18 9.5 °C 9.3 °C 998.5 hPa Calm     99 % 0 mm
04:23 9.4 °C 9.3 °C 998.5 hPa Calm     99 % 0 mm
04:28 9.4 °C 9.3 °C 998.5 hPa Calm     99 % 0 mm
04:33 9.3 °C 9.2 °C 998.2 hPa Calm     99 % 0 mm
04:38 9.2 °C 9.1 °C 998.5 hPa Calm     99 % 0 mm
04:43 9.1 °C 8.9 °C 998.9 hPa Calm     99 % 0 mm
04:48 9 °C 8.9 °C 998.9 hPa Calm     99 % 0 mm
04:53 8.8 °C 8.7 °C 999.2 hPa Calm     99 % 0 mm
04:58 8.7 °C 8.6 °C 999.2 hPa Calm     99 % 0 mm
05:03 8.6 °C 8.5 °C 999.5 hPa Calm     99 % 0 mm
05:08 8.6 °C 8.5 °C 999.5 hPa Calm     99 % 0 mm
05:13 8.6 °C 8.5 °C 999.5 hPa Calm     99 % 0 mm
05:18 8.6 °C 8.5 °C 999.5 hPa Calm     99 % 0 mm
05:23 8.5 °C 8.4 °C 999.5 hPa Calm     99 % 0 mm
05:28 8.6 °C 8.5 °C 999.5 hPa Calm     99 % 0 mm
05:33 8.6 °C 8.5 °C 999.9 hPa Calm     99 % 0 mm
05:38 8.6 °C 8.5 °C 999.9 hPa Calm     99 % 0 mm
05:43 8.6 °C 8.5 °C 1000.2 hPa Calm     99 % 0 mm
05:48 8.7 °C 8.6 °C 1000.2 hPa Calm     99 % 0 mm
05:53 8.8 °C 8.7 °C 1000.6 hPa Calm     99 % 0 mm
05:58 8.8 °C 8.7 °C 1000.6 hPa Calm     99 % 0 mm
06:03 8.7 °C 8.6 °C 1000.6 hPa Calm     99 % 0 mm
06:08 8.7 °C 8.6 °C 1000.6 hPa Calm     99 % 0 mm
06:13 8.6 °C 8.5 °C 1000.9 hPa Calm     99 % 0 mm
06:18 8.7 °C 8.6 °C 1000.9 hPa Calm     99 % 0 mm
06:23 8.7 °C 8.6 °C 1001.2 hPa Calm     99 % 0 mm
06:24 8.7 °C 8.6 °C 1001.2 hPa Calm     99 % 0 mm
06:29 8.7 °C 8.6 °C 1001.2 hPa Calm     99 % 0 mm
06:34 8.6 °C 8.3 °C 1001.2 hPa Calm     98 % 0 mm
06:39 8.5 °C 8.2 °C 1001.6 hPa Calm     98 % 0 mm
06:44 8.5 °C 8.2 °C 1001.6 hPa Calm     98 % 0 mm
06:49 8.5 °C 8.2 °C 1001.6 hPa Calm     98 % 0 mm
06:54 8.9 °C 8.8 °C 1001.9 hPa Calm     99 % 0 mm
06:59 9 °C 8.7 °C 1001.9 hPa Calm     98 % 0 mm
07:04 9.2 °C 8.9 °C 1001.9 hPa Calm     98 % 0 mm
07:09 9.4 °C 8.8 °C 1001.9 hPa Calm     96 % 0 mm
07:14 9.5 °C 8.7 °C 1001.9 hPa Calm     95 % 0 mm
07:15 9.5 °C 8.7 °C 1002.3 hPa Calm     95 % 0 mm
07:20 9.5 °C 8.6 °C 1001.9 hPa Calm     94 % 0 mm
07:25 9.4 °C 8.5 °C 1002.3 hPa Calm     94 % 0 mm
07:30 9.3 °C 8.4 °C 1002.3 hPa Calm   1.1 km/h 94 % 0 mm
07:35 9.3 °C 8.4 °C 1002.6 hPa Calm   1.1 km/h 94 % 0 mm
07:40 9.2 °C 8.3 °C 1002.3 hPa Calm     94 % 0 mm
07:45 9.3 °C 8.4 °C 1002.6 hPa Calm     94 % 0 mm
07:50 9.4 °C 8.5 °C 1002.6 hPa Calm     94 % 0 mm
07:55 9.5 °C 8.6 °C 1002.6 hPa Calm     94 % 0 mm
08:00 9.6 °C 8.6 °C 1002.9 hPa Calm     93 % 0 mm
08:05 9.8 °C 8.7 °C 1002.9 hPa Calm     93 % 0 mm
08:10 10 °C 8.8 °C 1002.9 hPa Calm   1.1 km/h 92 % 0 mm
08:15 10.2 °C 8.8 °C 1003.3 hPa Calm   1.1 km/h 91 % 0 mm
08:20 10.4 °C 8.8 °C 1003.3 hPa Calm     90 % 0 mm
08:25 10.8 °C 9.2 °C 1003.6 hPa Calm     90 % 0 mm
08:30 10.9 °C 9.2 °C 1003.6 hPa Calm     89 % 0 mm
08:35 11 °C 9.2 °C 1003.6 hPa Calm     89 % 0 mm
08:40 11.4 °C 10.1 °C 1003.9 hPa Calm     91 % 0 mm
08:45 12.1 °C 10.1 °C 1003.9 hPa Calm     88 % 0 mm
08:50 12.4 °C 9.8 °C 1003.9 hPa Calm     84 % 0 mm
08:55 12.7 °C 9.3 °C 1003.9 hPa Calm     80 % 0 mm
09:00 12.6 °C 8.8 °C 1003.9 hPa Calm     78 % 0 mm
09:05 12.9 °C 9 °C 1003.9 hPa Calm     77 % 0 mm
09:10 13.1 °C 8.7 °C 1003.9 hPa Calm   1.1 km/h 75 % 0 mm
09:15 13.1 °C 8.9 °C 1003.9 hPa Calm   1.1 km/h 76 % 0 mm
09:20 13.2 °C 9.3 °C 1003.9 hPa Calm     77 % 0 mm
09:25 13.2 °C 8.5 °C 1003.9 hPa Calm     73 % 0 mm
09:30 13.3 °C 8.4 °C 1003.9 hPa Calm     72 % 0 mm
09:35 13.3 °C 8 °C 1003.9 hPa Calm   1.1 km/h 70 % 0 mm
09:40 13.3 °C 8.4 °C 1003.9 hPa Calm   1.1 km/h 72 % 0 mm
09:45 13.4 °C 8.5 °C 1003.9 hPa Calm     72 % 0 mm
09:51 13.4 °C 8.7 °C 1003.9 hPa Calm     73 % 0 mm
09:56 13.7 °C 8.8 °C 1003.9 hPa Calm     72 % 0 mm
10:01 13.8 °C 8.7 °C 1003.9 hPa Calm   1.1 km/h 71 % 0 mm
10:06 14 °C 9.1 °C 1003.9 hPa Calm   1.1 km/h 72 % 0 mm
10:16 13.7 °C 8.9 °C 1003.9 hPa Calm     73 % 0 mm
10:21 14.2 °C 8.8 °C 1003.9 hPa Calm     70 % 0 mm
10:26 14.4 °C 8.8 °C 1003.6 hPa Calm     69 % 0 mm
10:31 14.8 °C 8.5 °C 1003.9 hPa Calm   1.1 km/h 66 % 0 mm
10:36 14.9 °C 8.8 °C 1003.9 hPa Calm   1.1 km/h 67 % 0 mm
10:41 15.2 °C 8.9 °C 1003.9 hPa Calm     66 % 0 mm
10:46 15.3 °C 8.8 °C 1003.6 hPa Calm     65 % 0 mm
10:51 15.2 °C 9.3 °C 1003.9 hPa Calm     68 % 0 mm
10:56 15 °C 8.2 °C 1003.6 hPa Calm     64 % 0 mm
11:01 15 °C 8.9 °C 1003.6 hPa Calm     67 % 0 mm
11:06 15.4 °C 8.4 °C 1003.6 hPa Calm     63 % 0 mm
11:11 15.4 °C 7.9 °C 1003.3 hPa Calm     61 % 0 mm
11:16 14.9 °C 8.2 °C 1003.6 hPa Calm     64 % 0 mm
11:21 14.4 °C 8.4 °C 1003.3 hPa Calm     67 % 0 mm
11:26 15.2 °C 9.6 °C 1002.9 hPa Calm     69 % 0 mm
11:31 15.3 °C 8.3 °C 1003.3 hPa Calm     63 % 0 mm
11:36 14.7 °C 8.7 °C 1003.3 hPa Calm     67 % 0 mm
11:41 14.4 °C 8.6 °C 1003.3 hPa Calm     68 % 0 mm
11:46 14 °C 8.4 °C 1003.3 hPa Calm   1.1 km/h 69 % 0 mm
11:51 13.9 °C 8.7 °C 1003.3 hPa Calm   1.1 km/h 71 % 0 mm
11:56 13.6 °C 8.7 °C 1003.3 hPa Calm   1.1 km/h 72 % 0 mm
12:01 13.3 °C 9.4 °C 1003.3 hPa Calm     77 % 0 mm
12:06 13.6 °C 9.5 °C 1003.3 hPa Calm     76 % 0 mm
12:11 13.8 °C 9.3 °C 1002.9 hPa Calm     74 % 0 mm
12:16 14.5 °C 9.5 °C 1002.9 hPa Calm     72 % 0 mm
12:21 14.8 °C 9.2 °C 1002.6 hPa Calm     69 % 0 mm
Ararat Weather
Compliments of Weather Underground - 1.25 mb
Click here to send mail.


ABOUT

Live weather data from Ararat, Victoria, Australia, 3377
Data uploaded from Cumulus every 5 minutes to Weather Underground.
This site then downloads the raw data for formatting and display.
Metric and imperial data can be displayed. Graphs and historical data available.
Includes Sun and Moon times and rain image live from BOM.

Check out Ararat Weather on Facebook, Twitter and Google +

Help support ongoing costs by checking out the ads





Follow @AraratWeather